createdAt,value
2017-12-10T00:02:20.860Z,20.27
2017-12-10T00:04:48.341Z,4.40
2017-12-10T00:07:15.919Z,18.00
2017-12-10T00:09:43.404Z,20.85
2017-12-10T00:12:10.885Z,8.23
2017-12-10T00:14:38.381Z,6.90
2017-12-10T00:17:05.857Z,4.80
2017-12-10T00:19:33.362Z,16.42
2017-12-10T00:22:01.613Z,18.83
2017-12-10T00:24:29.088Z,8.48
2017-12-10T00:26:56.582Z,13.88
2017-12-10T00:29:24.066Z,10.23
2017-12-10T00:31:51.585Z,6.35
2017-12-10T00:34:19.838Z,16.70
2017-12-10T00:36:47.326Z,6.05
2017-12-10T00:39:14.830Z,13.30
2017-12-10T00:41:42.322Z,9.82
2017-12-10T00:44:09.826Z,6.68
2017-12-10T00:46:37.308Z,9.02
2017-12-10T00:49:04.798Z,18.73
2017-12-10T00:51:32.290Z,4.97
2017-12-10T00:53:59.773Z,8.13
2017-12-10T00:56:27.274Z,6.20
2017-12-10T00:58:55.526Z,6.30
2017-12-10T01:01:23.005Z,8.18
2017-12-10T01:03:51.261Z,6.35
2017-12-10T01:06:19.538Z,9.50
2017-12-10T01:08:47.078Z,4.12
2017-12-10T01:11:14.557Z,6.00
2017-12-10T01:13:42.044Z,10.75
2017-12-10T01:16:10.314Z,9.75
2017-12-10T01:18:38.576Z,11.15
2017-12-10T01:21:06.157Z,5.47
2017-12-10T01:23:34.405Z,11.10
2017-12-10T01:26:02.678Z,10.52
2017-12-10T01:28:30.304Z,9.93
2017-12-10T01:30:57.831Z,6.68
2017-12-10T01:33:26.101Z,6.62
2017-12-10T01:35:54.355Z,11.05
2017-12-10T01:38:21.844Z,7.80
2017-12-10T01:40:50.101Z,9.73
2017-12-10T01:43:18.367Z,9.20
2017-12-10T01:45:45.986Z,7.75
2017-12-10T01:48:13.474Z,9.00
2017-12-10T01:50:40.969Z,12.98
2017-12-10T01:53:09.246Z,20.77
2017-12-10T01:55:36.801Z,13.18
2017-12-10T01:58:04.335Z,13.70
2017-12-10T02:00:31.817Z,13.23
2017-12-10T02:03:00.116Z,8.85
2017-12-10T02:05:27.653Z,8.75
2017-12-10T02:07:55.934Z,6.72
2017-12-10T02:10:23.443Z,14.02
2017-12-10T02:12:50.921Z,7.95
2017-12-10T02:15:18.438Z,7.70
2017-12-10T02:17:45.933Z,7.93
2017-12-10T02:20:13.438Z,14.27
2017-12-10T02:22:40.996Z,6.28
2017-12-10T02:25:08.534Z,9.90
2017-12-10T02:27:36.796Z,11.40
2017-12-10T02:30:04.302Z,3.92
2017-12-10T02:32:31.800Z,7.57
2017-12-10T02:34:59.292Z,8.50
2017-12-10T02:37:27.590Z,12.10
2017-12-10T02:39:55.082Z,9.90
2017-12-10T02:42:22.566Z,6.60
2017-12-10T02:44:50.079Z,6.30
2017-12-10T02:47:17.597Z,4.62
2017-12-10T02:49:45.850Z,7.95
2017-12-10T02:52:14.169Z,4.87
2017-12-10T02:54:41.663Z,7.35
2017-12-10T02:57:09.159Z,13.60
2017-12-10T02:59:37.430Z,6.82
2017-12-10T03:02:05.735Z,5.50
2017-12-10T03:04:33.256Z,9.15
2017-12-10T03:07:00.772Z,15.75
2017-12-10T03:09:28.258Z,14.50
2017-12-10T03:11:55.782Z,5.40
2017-12-10T03:14:23.341Z,5.15
2017-12-10T03:16:50.837Z,11.05
2017-12-10T03:19:18.346Z,9.95
2017-12-10T03:21:45.835Z,9.13
2017-12-10T03:24:13.322Z,10.73
2017-12-10T03:26:40.840Z,4.87
2017-12-10T03:29:08.335Z,12.07
2017-12-10T03:31:35.833Z,11.52
2017-12-10T03:34:03.357Z,11.02
2017-12-10T03:36:30.839Z,8.02
2017-12-10T03:38:59.095Z,6.85
2017-12-10T03:41:26.612Z,13.85
2017-12-10T03:43:54.098Z,10.18
2017-12-10T03:46:21.683Z,6.57
2017-12-10T03:48:49.963Z,7.40
2017-12-10T03:51:18.238Z,7.80
2017-12-10T03:53:46.490Z,9.75
2017-12-10T03:56:14.196Z,5.40
2017-12-10T03:58:41.746Z,9.00
2017-12-10T04:01:09.227Z,5.97
2017-12-10T04:03:36.737Z,7.75
2017-12-10T04:06:04.240Z,7.00
2017-12-10T04:08:31.736Z,4.75
2017-12-10T04:10:59.252Z,15.77
2017-12-10T04:13:26.805Z,12.18
2017-12-10T04:15:54.325Z,3.50
2017-12-10T04:18:21.960Z,10.55
2017-12-10T04:20:49.472Z,4.12
2017-12-10T04:23:17.750Z,13.38
2017-12-10T04:25:46.007Z,4.80
2017-12-10T04:28:13.529Z,5.25
2017-12-10T04:30:41.036Z,9.15
2017-12-10T04:33:08.611Z,7.45
2017-12-10T04:35:36.100Z,5.28
2017-12-10T04:38:03.602Z,5.28
2017-12-10T04:40:31.921Z,3.40
2017-12-10T04:42:59.468Z,10.80
2017-12-10T04:45:27.093Z,6.15
2017-12-10T04:47:54.589Z,4.50
2017-12-10T04:50:22.214Z,9.23
2017-12-10T04:52:50.465Z,6.90
2017-12-10T04:55:17.937Z,9.32
2017-12-10T04:57:45.437Z,9.38
2017-12-10T05:00:12.951Z,9.07
2017-12-10T05:02:40.446Z,10.52
2017-12-10T05:05:07.969Z,5.75
2017-12-10T05:07:35.572Z,5.20
2017-12-10T05:10:03.068Z,7.20
2017-12-10T05:12:30.560Z,8.07
2017-12-10T05:14:58.805Z,5.80
2017-12-10T05:17:26.297Z,7.55
2017-12-10T05:19:54.556Z,3.90
2017-12-10T05:22:22.080Z,3.80
2017-12-10T05:24:49.576Z,3.20
2017-12-10T05:27:17.142Z,7.00
2017-12-10T05:29:45.442Z,10.73
2017-12-10T05:32:12.939Z,3.40
2017-12-10T05:34:40.444Z,5.37
2017-12-10T05:37:08.717Z,5.82
2017-12-10T05:39:36.969Z,9.40
2017-12-10T05:42:04.487Z,7.55
2017-12-10T05:44:31.980Z,3.45
2017-12-10T05:46:59.476Z,4.82
2017-12-10T05:49:27.750Z,9.32
2017-12-10T05:51:56.007Z,6.97
2017-12-10T05:54:23.481Z,9.20
2017-12-10T05:56:51.763Z,7.30
2017-12-10T05:59:20.142Z,6.85
2017-12-10T06:01:48.385Z,8.80
2017-12-10T06:04:15.905Z,8.80
2017-12-10T06:06:43.395Z,4.75
2017-12-10T06:09:10.895Z,9.43
2017-12-10T06:11:38.418Z,12.18
2017-12-10T06:14:05.916Z,4.35
2017-12-10T06:16:33.414Z,11.55
2017-12-10T06:19:00.910Z,6.95
2017-12-10T06:21:29.167Z,6.68
2017-12-10T06:23:56.680Z,10.77
2017-12-10T06:26:24.178Z,9.35
2017-12-10T06:28:51.705Z,11.43
2017-12-10T06:31:19.204Z,9.98
2017-12-10T06:33:46.699Z,13.75
2017-12-10T06:36:14.204Z,6.05
2017-12-10T06:38:41.691Z,9.02
2017-12-10T06:41:09.963Z,9.35
2017-12-10T06:43:38.216Z,14.13
2017-12-10T06:46:05.720Z,8.70
2017-12-10T06:48:33.225Z,6.93
2017-12-10T06:51:00.702Z,5.25
2017-12-10T06:53:28.228Z,9.45
2017-12-10T06:55:55.727Z,7.70
2017-12-10T06:58:23.974Z,7.50
2017-12-10T07:00:51.501Z,5.18
2017-12-10T07:03:18.996Z,6.37
2017-12-10T07:05:46.478Z,6.20
2017-12-10T07:08:14.769Z,30.45
2017-12-10T07:10:42.355Z,21.70
2017-12-10T07:13:10.581Z,48.17
2017-12-10T07:15:38.082Z,8.57
2017-12-10T07:18:05.561Z,10.73
2017-12-10T07:20:33.044Z,5.95
2017-12-10T07:23:00.545Z,11.12
2017-12-10T07:25:28.127Z,9.60
2017-12-10T07:27:55.610Z,5.30
2017-12-10T07:30:23.138Z,10.38
2017-12-10T07:32:50.626Z,13.38
2017-12-10T07:35:18.110Z,5.62
2017-12-10T07:37:46.399Z,9.90
2017-12-10T07:40:14.637Z,9.05
2017-12-10T07:42:42.134Z,4.62
2017-12-10T07:45:10.402Z,6.10
2017-12-10T07:47:38.670Z,5.78
2017-12-10T07:50:06.173Z,5.65
2017-12-10T07:52:33.678Z,8.18
2017-12-10T07:55:01.181Z,4.22
2017-12-10T07:57:28.657Z,5.50
2017-12-10T07:59:56.170Z,8.10
2017-12-10T08:02:24.422Z,4.03
2017-12-10T08:04:51.931Z,9.20
2017-12-10T08:07:19.415Z,7.93
2017-12-10T08:09:47.278Z,9.05
2017-12-10T08:12:14.810Z,6.43
2017-12-10T08:14:42.322Z,9.55
2017-12-10T08:17:09.805Z,10.05
2017-12-10T08:19:38.048Z,12.57
2017-12-10T08:22:05.552Z,4.85
2017-12-10T08:24:33.057Z,3.47
2017-12-10T08:27:00.580Z,13.80
2017-12-10T08:29:28.070Z,11.25
2017-12-10T08:31:55.641Z,7.97
2017-12-10T08:34:23.264Z,7.68
2017-12-10T08:36:50.749Z,6.55
2017-12-10T08:39:18.234Z,14.90
2017-12-10T08:41:45.748Z,4.00
2017-12-10T08:44:13.297Z,8.75
2017-12-10T08:46:40.793Z,12.60
2017-12-10T08:49:08.288Z,12.32
2017-12-10T08:51:36.572Z,9.60
2017-12-10T08:54:04.855Z,11.12
2017-12-10T08:56:32.380Z,7.10
2017-12-10T08:58:59.877Z,4.30
2017-12-10T09:01:27.431Z,10.93
2017-12-10T09:03:54.939Z,13.07
2017-12-10T09:06:22.422Z,15.52
2017-12-10T09:08:49.920Z,10.07
2017-12-10T09:11:17.420Z,8.93
2017-12-10T09:13:44.910Z,10.13
2017-12-10T09:16:13.162Z,5.30
2017-12-10T09:18:40.776Z,12.60
2017-12-10T09:21:08.266Z,18.87
2017-12-10T09:23:35.756Z,5.72
2017-12-10T09:26:03.404Z,8.52
2017-12-10T09:28:30.876Z,5.53
2017-12-10T09:30:58.485Z,10.65
2017-12-10T09:33:26.012Z,3.55
2017-12-10T09:35:54.258Z,6.25
2017-12-10T09:38:21.742Z,6.68
2017-12-10T09:40:50.065Z,4.20
2017-12-10T09:43:17.541Z,3.35
2017-12-10T09:45:46.786Z,4.12
2017-12-10T09:48:15.050Z,10.73
2017-12-10T09:50:43.324Z,4.62
2017-12-10T09:53:10.826Z,5.60
2017-12-10T09:55:38.361Z,27.90
2017-12-10T09:58:06.641Z,27.95
2017-12-10T10:00:34.885Z,21.33
2017-12-10T10:03:02.501Z,15.23
2017-12-10T10:05:29.991Z,16.33
2017-12-10T10:07:57.487Z,19.55
2017-12-10T10:10:25.754Z,24.23
2017-12-10T10:12:53.246Z,27.90
2017-12-10T10:15:20.768Z,33.97
2017-12-10T10:17:48.257Z,38.40
2017-12-10T10:20:15.829Z,18.37
2017-12-10T10:22:43.373Z,15.27
2017-12-10T10:25:10.893Z,24.90
2017-12-10T10:27:38.392Z,31.58
2017-12-10T10:30:05.897Z,19.27
2017-12-10T10:32:33.386Z,16.17
2017-12-10T10:35:01.642Z,11.12
2017-12-10T10:37:29.166Z,8.00
2017-12-10T10:39:56.659Z,16.55
2017-12-10T10:42:24.142Z,7.12
2017-12-10T10:44:52.432Z,7.15
2017-12-10T10:47:20.696Z,7.55
2017-12-10T10:49:48.947Z,11.85
2017-12-10T10:52:16.466Z,6.93
2017-12-10T10:54:44.025Z,17.52
2017-12-10T10:57:12.237Z,12.10
2017-12-10T10:59:39.742Z,10.38
2017-12-10T11:02:07.247Z,6.85
2017-12-10T11:04:34.887Z,15.90
2017-12-10T11:07:02.390Z,6.18
2017-12-10T11:09:30.656Z,13.20
2017-12-10T11:11:58.188Z,44.10
2017-12-10T11:14:25.673Z,41.58
2017-12-10T11:16:53.166Z,13.18
2017-12-10T11:19:20.731Z,5.78
2017-12-10T11:21:48.220Z,5.45
2017-12-10T11:24:15.701Z,5.97
2017-12-10T11:26:43.213Z,7.75
2017-12-10T11:29:10.699Z,4.32
2017-12-10T11:31:38.199Z,19.48
2017-12-10T11:34:06.492Z,68.10
2017-12-10T11:36:33.979Z,30.85
2017-12-10T11:39:01.461Z,12.40
2017-12-10T11:41:28.963Z,10.82
2017-12-10T11:43:56.445Z,11.12
2017-12-10T11:46:23.951Z,20.67
2017-12-10T11:48:51.442Z,17.40
2017-12-10T11:51:18.946Z,12.93
2017-12-10T11:53:46.586Z,12.37
2017-12-10T11:56:14.086Z,10.75
2017-12-10T11:58:41.569Z,10.13
2017-12-10T12:01:09.837Z,11.45
2017-12-10T12:03:38.351Z,9.85
2017-12-10T12:06:05.865Z,13.75
2017-12-10T12:08:33.408Z,13.15
2017-12-10T12:11:00.916Z,12.37
2017-12-10T12:13:28.590Z,13.05
2017-12-10T12:15:56.087Z,5.30
2017-12-10T12:18:23.599Z,9.70
2017-12-10T12:20:51.188Z,3.40
2017-12-10T12:23:18.699Z,14.90
2017-12-10T12:25:47.208Z,6.43
2017-12-10T12:28:14.704Z,3.92
2017-12-10T12:30:42.223Z,10.60
2017-12-10T12:33:09.719Z,4.75
2017-12-10T12:35:37.196Z,13.15
2017-12-10T12:38:04.711Z,6.18
2017-12-10T12:40:32.199Z,4.85
2017-12-10T12:42:59.700Z,11.27
2017-12-10T12:45:27.225Z,8.45
2017-12-10T12:47:54.715Z,3.67
2017-12-10T12:50:22.210Z,8.20
2017-12-10T12:52:49.745Z,23.42
2017-12-10T12:55:17.252Z,31.95
2017-12-10T12:57:44.795Z,45.83
2017-12-10T13:00:12.261Z,34.55
2017-12-10T13:02:39.766Z,57.92
2017-12-10T13:05:07.265Z,22.08
2017-12-10T13:07:34.757Z,32.50
2017-12-10T13:10:02.270Z,74.03
2017-12-10T13:12:29.758Z,31.77
2017-12-10T13:14:57.250Z,44.30
2017-12-10T13:17:25.543Z,99.07
2017-12-10T13:19:53.116Z,59.15
2017-12-10T13:22:20.630Z,30.45
2017-12-10T13:24:48.943Z,7.68
2017-12-10T13:27:16.497Z,8.82
2017-12-10T13:29:44.731Z,3.72
2017-12-10T13:32:12.226Z,6.43
2017-12-10T13:34:39.788Z,5.62
2017-12-10T13:37:07.295Z,3.60
2017-12-10T13:39:34.787Z,5.80
2017-12-10T13:42:03.186Z,6.10
2017-12-10T13:44:30.678Z,9.35
2017-12-10T13:46:58.304Z,4.80
2017-12-10T13:49:25.854Z,6.22
2017-12-10T13:51:53.386Z,6.00
2017-12-10T13:54:20.889Z,4.30
2017-12-10T13:56:48.396Z,4.93
2017-12-10T13:59:15.887Z,4.30
2017-12-10T14:01:44.179Z,7.03
2017-12-10T14:04:11.667Z,9.73
2017-12-10T14:06:39.171Z,13.82
2017-12-10T14:09:07.461Z,23.70
2017-12-10T14:11:34.972Z,30.33
2017-12-10T14:14:02.491Z,20.95
2017-12-10T14:16:30.018Z,27.40
2017-12-10T14:18:58.409Z,22.23
2017-12-10T14:21:25.906Z,23.65
2017-12-10T14:23:53.450Z,29.50
2017-12-10T14:26:20.964Z,45.25
2017-12-10T14:28:49.250Z,30.85
2017-12-10T14:31:17.510Z,42.10
2017-12-10T14:33:44.997Z,21.40
2017-12-10T14:36:12.509Z,8.05
2017-12-10T14:38:40.024Z,4.60
2017-12-10T14:41:07.514Z,1.73
2017-12-10T14:43:35.031Z,3.55
2017-12-10T14:46:02.528Z,7.22
2017-12-10T14:48:30.042Z,1.40
2017-12-10T14:50:57.539Z,1.87
2017-12-10T14:53:25.040Z,3.47
2017-12-10T14:55:52.551Z,4.18
2017-12-10T14:58:20.038Z,21.60
2017-12-10T15:00:47.528Z,73.10
2017-12-10T15:03:15.819Z,97.12
2017-12-10T15:05:43.396Z,72.30
2017-12-10T15:08:10.885Z,74.62
2017-12-10T15:10:38.430Z,46.90
2017-12-10T15:13:05.941Z,12.60
2017-12-10T15:15:33.571Z,3.65
2017-12-10T15:18:01.073Z,2.90
2017-12-10T15:20:28.633Z,3.60
2017-12-10T15:22:56.881Z,9.48
2017-12-10T15:25:24.442Z,7.28
2017-12-10T15:27:51.927Z,11.25
2017-12-10T15:30:19.465Z,18.50
2017-12-10T15:32:46.973Z,17.08
2017-12-10T15:35:14.477Z,6.47
2017-12-10T15:37:41.980Z,5.95
2017-12-10T15:40:10.257Z,9.95
2017-12-10T15:42:38.554Z,2.55
2017-12-10T15:45:06.798Z,4.95
2017-12-10T15:47:34.336Z,6.78
2017-12-10T15:50:01.830Z,5.57
2017-12-10T15:52:29.343Z,8.10
2017-12-10T15:54:56.868Z,5.32
2017-12-10T15:57:24.380Z,3.15
2017-12-10T15:59:51.876Z,9.15
2017-12-10T16:02:19.408Z,2.37
2017-12-10T16:04:46.903Z,4.62
2017-12-10T16:07:15.889Z,2.65
2017-12-10T16:09:43.610Z,2.55
2017-12-10T16:12:11.113Z,2.25
2017-12-10T16:14:38.620Z,6.37
2017-12-10T16:17:06.189Z,3.65
2017-12-10T16:19:33.730Z,1.33
2017-12-10T16:22:01.214Z,1.20
2017-12-10T16:24:28.748Z,8.47
2017-12-10T16:26:56.236Z,2.65
2017-12-10T16:29:23.770Z,2.17
2017-12-10T16:31:51.296Z,4.72
2017-12-10T16:34:19.907Z,2.25
2017-12-10T16:36:47.433Z,5.32
2017-12-10T16:39:15.729Z,4.95
2017-12-10T16:41:44.447Z,1.95
2017-12-10T16:44:12.605Z,9.48
2017-12-10T16:46:40.156Z,9.70
2017-12-10T16:49:07.968Z,2.55
2017-12-10T16:51:35.475Z,3.10
2017-12-10T16:54:03.040Z,3.47
2017-12-10T16:56:30.581Z,2.47
2017-12-10T16:58:58.849Z,4.93
2017-12-10T17:01:26.385Z,5.45
2017-12-10T17:03:53.865Z,1.77
2017-12-10T17:06:21.474Z,7.05
2017-12-10T17:08:49.118Z,17.80
2017-12-10T17:11:16.606Z,11.70
2017-12-10T17:13:44.137Z,9.98
2017-12-10T17:16:11.645Z,18.95
2017-12-10T17:18:39.173Z,10.52
2017-12-10T17:21:06.657Z,9.55
2017-12-10T17:23:34.184Z,15.93
2017-12-10T17:26:01.810Z,21.05
2017-12-10T17:28:29.334Z,23.08
2017-12-10T17:30:56.827Z,11.00
2017-12-10T17:33:24.330Z,14.50
2017-12-10T17:35:51.843Z,12.40
2017-12-10T17:38:19.325Z,11.57
2017-12-10T17:40:46.849Z,16.30
2017-12-10T17:43:15.108Z,35.17
2017-12-10T17:45:42.710Z,7.53
2017-12-10T17:48:10.242Z,30.92
2017-12-10T17:50:38.495Z,31.75
2017-12-10T17:53:05.996Z,35.10
2017-12-10T17:55:33.510Z,23.27
2017-12-10T17:58:00.991Z,30.92
2017-12-10T18:00:29.294Z,13.77
2017-12-10T18:02:56.878Z,20.75
2017-12-10T18:05:24.432Z,26.98
2017-12-10T18:07:51.918Z,10.75
2017-12-10T18:10:19.461Z,26.55
2017-12-10T18:12:46.966Z,16.17
2017-12-10T18:15:14.553Z,17.58
2017-12-10T18:17:42.040Z,17.08
2017-12-10T18:20:09.567Z,18.50
2017-12-10T18:22:37.093Z,11.20
2017-12-10T18:25:05.376Z,12.98
2017-12-10T18:27:33.621Z,20.40
2017-12-10T18:30:01.146Z,15.73
2017-12-10T18:32:28.644Z,11.70
2017-12-10T18:34:56.165Z,26.17
2017-12-10T18:37:23.645Z,13.07
2017-12-10T18:39:51.161Z,17.12
2017-12-10T18:42:18.646Z,17.45
2017-12-10T18:44:46.148Z,19.15
2017-12-10T18:47:14.440Z,13.93
2017-12-10T18:49:42.005Z,10.35
2017-12-10T18:52:09.505Z,14.38
2017-12-10T18:54:37.016Z,26.30
2017-12-10T18:57:04.523Z,17.77
2017-12-10T18:59:32.085Z,29.40
2017-12-10T19:01:59.581Z,10.95
2017-12-10T19:04:27.842Z,11.32
2017-12-10T19:06:56.097Z,17.58
2017-12-10T19:09:23.611Z,35.20
2017-12-10T19:11:51.156Z,7.32
2017-12-10T19:14:18.647Z,15.30
2017-12-10T19:16:46.158Z,27.17
2017-12-10T19:19:14.434Z,30.65
2017-12-10T19:21:42.693Z,12.35
2017-12-10T19:24:11.732Z,13.23
2017-12-10T19:26:39.301Z,13.98
2017-12-10T19:29:06.786Z,11.35
2017-12-10T19:31:34.310Z,16.33
2017-12-10T19:34:01.802Z,17.52
2017-12-10T19:36:29.338Z,20.52
2017-12-10T19:38:56.841Z,17.55
2017-12-10T19:41:25.106Z,16.65
2017-12-10T19:43:52.595Z,17.52
2017-12-10T19:46:20.894Z,14.32
2017-12-10T19:48:48.391Z,22.87
2017-12-10T19:51:15.869Z,7.32
2017-12-10T19:53:43.473Z,13.23
2017-12-10T19:56:10.957Z,18.70
2017-12-10T19:58:38.437Z,9.52
2017-12-10T20:01:05.968Z,15.30
2017-12-10T20:03:33.468Z,13.27
2017-12-10T20:06:01.761Z,17.60
2017-12-10T20:08:29.344Z,23.30
2017-12-10T20:10:56.844Z,19.35
2017-12-10T20:13:24.383Z,11.32
2017-12-10T20:15:51.865Z,11.95
2017-12-10T20:18:19.393Z,12.60
2017-12-10T20:20:46.915Z,12.07
2017-12-10T20:23:14.426Z,15.55
2017-12-10T20:25:41.932Z,16.20
2017-12-10T20:28:09.478Z,13.93
2017-12-10T20:30:37.753Z,6.20
2017-12-10T20:33:06.031Z,12.27
2017-12-10T20:35:34.334Z,12.23
2017-12-10T20:38:01.856Z,24.10
2017-12-10T20:40:30.138Z,13.05
2017-12-10T20:42:58.407Z,19.60
2017-12-10T20:45:26.695Z,18.08
2017-12-10T20:47:54.993Z,20.25
2017-12-10T20:50:22.512Z,17.20
2017-12-10T20:52:50.041Z,16.50
2017-12-10T20:55:17.553Z,11.98
2017-12-10T20:57:45.035Z,16.30
2017-12-10T21:00:12.533Z,13.48
2017-12-10T21:02:40.068Z,21.42
2017-12-10T21:05:07.601Z,12.13
2017-12-10T21:07:35.120Z,14.65
2017-12-10T21:10:03.399Z,24.20
2017-12-10T21:12:31.659Z,19.73
2017-12-10T21:14:59.186Z,9.38
2017-12-10T21:17:26.700Z,18.98
2017-12-10T21:19:54.987Z,8.13
2017-12-10T21:22:22.508Z,10.02
2017-12-10T21:24:50.062Z,13.43
2017-12-10T21:27:17.563Z,13.77
2017-12-10T21:29:45.069Z,19.33
2017-12-10T21:32:12.568Z,13.40
2017-12-10T21:34:40.817Z,10.90
2017-12-10T21:37:09.884Z,17.77
2017-12-10T21:39:37.383Z,19.73
2017-12-10T21:42:04.934Z,13.65
2017-12-10T21:44:33.235Z,11.05
2017-12-10T21:47:01.501Z,10.88
2017-12-10T21:49:29.789Z,2.40
2017-12-10T21:51:58.060Z,4.35
2017-12-10T21:54:26.302Z,6.15
2017-12-10T21:56:53.791Z,5.12
2017-12-10T21:59:21.358Z,1.52
2017-12-10T22:01:48.847Z,2.35
2017-12-10T22:04:16.343Z,8.40
2017-12-10T22:06:43.879Z,1.20
2017-12-10T22:09:11.351Z,1.52
2017-12-10T22:11:38.852Z,0.98
2017-12-10T22:14:06.372Z,1.67
2017-12-10T22:16:33.854Z,2.30
2017-12-10T22:19:02.119Z,1.35
2017-12-10T22:21:29.730Z,0.90
2017-12-10T22:23:57.263Z,4.20
2017-12-10T22:26:24.776Z,4.87
2017-12-10T22:28:52.291Z,2.17
2017-12-10T22:31:19.777Z,2.08
2017-12-10T22:33:47.286Z,1.50
2017-12-10T22:36:15.670Z,2.35
2017-12-10T22:38:43.149Z,2.95
2017-12-10T22:41:10.652Z,1.80
2017-12-10T22:43:38.186Z,1.90
2017-12-10T22:46:05.674Z,2.87
2017-12-10T22:48:33.154Z,2.60
2017-12-10T22:51:01.439Z,2.50
2017-12-10T22:53:28.918Z,4.43
2017-12-10T22:55:56.424Z,4.82
2017-12-10T22:58:24.028Z,1.52
2017-12-10T23:00:51.527Z,3.65
2017-12-10T23:03:19.006Z,2.45
2017-12-10T23:05:47.287Z,2.85
2017-12-10T23:08:15.551Z,2.40
2017-12-10T23:10:43.038Z,3.58
2017-12-10T23:13:10.541Z,2.97
2017-12-10T23:15:38.059Z,2.65
2017-12-10T23:18:06.281Z,3.20
2017-12-10T23:20:34.676Z,6.45
2017-12-10T23:23:03.656Z,5.70
2017-12-10T23:25:31.143Z,2.95
2017-12-10T23:27:59.419Z,2.72
2017-12-10T23:30:26.931Z,4.47
2017-12-10T23:32:54.571Z,2.60
2017-12-10T23:35:22.101Z,3.17
2017-12-10T23:37:50.351Z,2.72
2017-12-10T23:40:17.945Z,3.97
2017-12-10T23:42:45.461Z,5.22
2017-12-10T23:45:12.960Z,3.50
2017-12-10T23:47:40.515Z,3.10
2017-12-10T23:50:08.784Z,3.30
2017-12-10T23:52:37.048Z,4.15
2017-12-10T23:55:05.309Z,5.20
2017-12-10T23:57:32.809Z,5.57
